Time;durP1;ratioP1;P1;durP2;ratioP2;P2;SDS_P1;SDS_P2;PMS_P1;PMS_P2;Temp;Humidity;BMP_temperature;BMP_pressure;BME280_temperature;BME280_humidity;BME280_pressure;Samples;Min_cycle;Max_cycle;Signal;HPM_P1;HPM_P2
2024/01/09 00:01:49;;;;;;;3.22;0.60;;;-3.10;99.90;;;;;;5022126;28;20053;-80
2024/01/09 00:04:15;;;;;;;5.22;0.30;;;-3.10;99.90;;;;;;5021776;28;20393;-80
2024/01/09 00:06:40;;;;;;;1.30;0.10;;;-3.10;99.90;;;;;;5020716;28;20033;-80
2024/01/09 00:09:06;;;;;;;1.50;0.35;;;;;;;;;;5020312;28;20499;-80
2024/01/09 00:11:32;;;;;;;3.30;0.47;;;;;;;;;;5038436;28;20033;-80
2024/01/09 00:13:58;;;;;;;2.67;0.77;;;-3.20;99.90;;;;;;5020871;28;20417;-80
2024/01/09 00:16:23;;;;;;;6.88;0.40;;;-3.10;99.90;;;;;;5019092;28;20025;-80
2024/01/09 00:18:53;;;;;;;3.13;0.63;;;;;;;;;;5019998;28;20418;-80
2024/01/09 00:21:22;;;;;;;3.63;0.38;;;-3.20;99.90;;;;;;5038452;28;20116;-80
2024/01/09 00:23:48;;;;;;;1.80;0.43;;;-3.20;99.90;;;;;;5020231;28;20075;-80
2024/01/09 00:26:14;;;;;;;2.75;0.50;;;-3.20;99.90;;;;;;5020564;28;20021;-80
2024/01/09 00:28:40;;;;;;;4.82;0.77;;;;;;;;;;5020679;28;20036;-80
2024/01/09 00:31:06;;;;;;;1.67;0.28;;;-3.30;99.90;;;;;;5020028;28;20026;-80
2024/01/09 00:33:35;;;;;;;2.25;0.52;;;-3.30;99.90;;;;;;5021283;28;20044;-79
2024/01/09 00:36:03;;;;;;;2.10;0.40;;;-3.30;99.90;;;;;;5019774;28;20623;-80
2024/01/09 00:38:29;;;;;;;2.83;0.55;;;;;;;;;;5019906;28;20018;-80
2024/01/09 00:40:54;;;;;;;1.90;0.50;;;-3.30;99.90;;;;;;5019950;28;20032;-80
2024/01/09 00:43:20;;;;;;;4.35;0.30;;;;;;;;;;5020468;28;20388;-80
2024/01/09 00:45:46;;;;;;;4.10;0.40;;;;;;;;;;5020356;28;20105;-79
2024/01/09 00:48:12;;;;;;;2.33;0.52;;;-3.40;99.90;;;;;;5038110;28;20026;-80
2024/01/09 00:50:38;;;;;;;4.68;0.45;;;;;;;;;;5020489;28;20024;-80
2024/01/09 00:53:05;;;;;;;3.42;0.40;;;-3.30;99.90;;;;;;5020016;28;20523;-79
2024/01/09 00:55:31;;;;;;;7.50;0.82;;;-3.30;99.90;;;;;;5020277;28;20013;-80
2024/01/09 00:57:57;;;;;;;1.67;0.20;;;-3.30;99.90;;;;;;5020687;28;20028;-80
2024/01/09 01:00:23;;;;;;;4.60;0.55;;;;;;;;;;5021206;28;20068;-80
2024/01/09 01:02:49;;;;;;;1.83;0.15;;;-3.40;99.90;;;;;;5021293;28;20542;-80
2024/01/09 01:05:15;;;;;;;5.93;0.80;;;-3.40;99.90;;;;;;5038665;28;20500;-80
2024/01/09 01:07:41;;;;;;;6.55;0.52;;;-3.50;99.90;;;;;;5039326;28;20029;-80
2024/01/09 01:10:07;;;;;;;2.38;0.35;;;-3.50;99.90;;;;;;5039952;28;20036;-79
2024/01/09 01:12:33;;;;;;;3.20;0.15;;;-3.40;99.90;;;;;;5022642;28;20031;-80
2024/01/09 01:14:58;;;;;;;2.35;0.00;;;-3.50;99.90;;;;;;5022130;28;20396;-80
2024/01/09 01:17:24;;;;;;;3.22;0.17;;;-3.40;99.90;;;;;;5021173;28;20028;-80
2024/01/09 01:19:49;;;;;;;3.78;0.77;;;-3.50;99.90;;;;;;5022533;28;20025;-79
2024/01/09 01:22:15;;;;;;;1.77;0.20;;;-3.50;99.90;;;;;;5021787;28;20033;-80
2024/01/09 01:24:41;;;;;;;2.05;0.55;;;;;;;;;;5039879;28;20397;-80
2024/01/09 01:27:07;;;;;;;2.45;0.43;;;-3.50;99.90;;;;;;5022073;28;20109;-80
2024/01/09 01:29:32;;;;;;;2.63;0.30;;;-3.50;99.90;;;;;;5022036;28;20045;-79
2024/01/09 01:31:58;;;;;;;2.47;0.35;;;;;;;;;;5021415;28;20026;-81
2024/01/09 01:34:24;;;;;;;3.25;0.45;;;;;;;;;;5020605;28;20035;-77
2024/01/09 01:36:50;;;;;;;3.25;0.47;;;-3.60;99.90;;;;;;5038927;28;20029;-76
2024/01/09 01:39:15;;;;;;;4.70;0.65;;;-3.70;99.90;;;;;;5037959;28;20480;-75
2024/01/09 01:41:41;;;;;;;3.20;0.32;;;-3.70;99.90;;;;;;5038593;28;20033;-76
2024/01/09 01:44:15;;;;;;;2.13;0.30;;;-3.70;99.90;;;;;;5021403;28;20053;-76
2024/01/09 01:46:43;;;;;;;2.47;0.25;;;-3.70;99.90;;;;;;5021674;28;20037;-76
2024/01/09 01:49:10;;;;;;;3.25;0.60;;;-3.70;99.90;;;;;;5021329;28;20021;-76
2024/01/09 01:51:36;;;;;;;2.15;0.38;;;-3.80;99.90;;;;;;5038912;28;20031;-78
2024/01/09 01:54:02;;;;;;;0.80;0.30;;;-3.80;99.90;;;;;;5038774;28;20029;-75
2024/01/09 01:56:27;;;;;;;3.28;0.25;;;-3.80;99.90;;;;;;5020815;28;20033;-75
2024/01/09 01:58:53;;;;;;;3.47;0.55;;;-3.80;99.90;;;;;;5038779;28;20021;-75
2024/01/09 02:01:19;;;;;;;1.85;0.50;;;-3.80;99.90;;;;;;5038553;28;20026;-75
2024/01/09 02:03:45;;;;;;;1.30;0.40;;;-3.80;99.90;;;;;;5021750;28;20022;-76
2024/01/09 02:06:11;;;;;;;1.50;0.22;;;-3.80;99.90;;;;;;5021511;28;20021;-76
2024/01/09 02:08:38;;;;;;;2.35;0.60;;;-3.80;99.90;;;;;;5038326;28;20025;-76
2024/01/09 02:11:04;;;;;;;2.83;0.40;;;-3.90;99.90;;;;;;5020037;28;20450;-76
2024/01/09 02:13:30;;;;;;;2.55;0.40;;;-3.80;99.90;;;;;;5038266;28;20354;-76
2024/01/09 02:15:56;;;;;;;2.50;0.10;;;-3.80;99.90;;;;;;5019606;28;20052;-76
2024/01/09 02:18:21;;;;;;;4.38;0.30;;;-3.90;99.90;;;;;;5020178;28;20025;-76
2024/01/09 02:20:47;;;;;;;1.23;0.13;;;-3.90;99.90;;;;;;5021344;28;20108;-76
2024/01/09 02:23:13;;;;;;;2.03;0.30;;;-3.80;99.90;;;;;;5021321;28;20028;-76
2024/01/09 02:25:38;;;;;;;1.67;0.20;;;-3.80;99.90;;;;;;5038498;28;20033;-77
2024/01/09 02:28:14;;;;;;;1.95;0.30;;;-3.80;99.90;;;;;;5037363;28;20060;-77
2024/01/09 02:30:41;;;;;;;2.75;0.43;;;-3.90;99.90;;;;;;5038149;28;20026;-76
2024/01/09 02:33:07;;;;;;;3.58;0.38;;;-3.90;99.90;;;;;;5020070;28;20059;-76
2024/01/09 02:35:33;;;;;;;3.83;0.40;;;-3.90;99.90;;;;;;5020055;28;20021;-76
2024/01/09 02:37:59;;;;;;;2.17;0.20;;;-3.80;99.90;;;;;;5037817;28;20048;-76
2024/01/09 02:40:24;;;;;;;1.50;0.30;;;-3.80;99.90;;;;;;5024221;28;20076;-76
2024/01/09 02:42:51;;;;;;;3.33;0.43;;;;;;;;;;5041627;28;20400;-76
2024/01/09 02:45:16;;;;;;;2.22;0.43;;;-3.90;99.90;;;;;;5042444;28;20400;-76
2024/01/09 02:47:42;;;;;;;3.00;0.28;;;-3.90;99.90;;;;;;5040668;28;20028;-76
2024/01/09 02:50:08;;;;;;;6.15;1.10;;;-4.00;99.90;;;;;;5040297;28;20026;-76
2024/01/09 02:52:34;;;;;;;1.27;0.20;;;-4.00;99.90;;;;;;5041623;28;20048;-76
2024/01/09 02:54:59;;;;;;;3.88;0.38;;;-4.10;99.90;;;;;;5022456;28;20453;-76
2024/01/09 02:57:25;;;;;;;2.30;0.20;;;-4.00;99.90;;;;;;5023459;28;20109;-76
2024/01/09 02:59:51;;;;;;;1.33;0.28;;;-4.00;99.90;;;;;;5023769;28;20010;-76
2024/01/09 03:02:16;;;;;;;1.20;0.20;;;-4.00;99.90;;;;;;5023704;28;20079;-76
2024/01/09 03:04:42;;;;;;;1.92;0.30;;;-4.00;99.90;;;;;;5041231;28;20033;-76
2024/01/09 03:07:07;;;;;;;2.45;0.47;;;-4.00;99.90;;;;;;5024899;28;20021;-76
2024/01/09 03:09:33;;;;;;;2.33;0.30;;;-1.40;99.90;;;;;;5024152;28;20047;-77
2024/01/09 03:11:59;;;;;;;4.72;0.73;;;-4.00;99.90;;;;;;5023687;28;20089;-76
2024/01/09 03:14:24;;;;;;;2.30;0.30;;;-4.00;99.90;;;;;;5041197;28;20041;-76
2024/01/09 03:16:50;;;;;;;3.25;0.40;;;-4.00;99.90;;;;;;5022226;28;20029;-76
2024/01/09 03:19:16;;;;;;;2.90;0.55;;;-4.00;99.90;;;;;;5022451;28;20026;-76
2024/01/09 03:21:42;;;;;;;5.03;0.30;;;-4.00;99.90;;;;;;5022528;28;20033;-76
2024/01/09 03:24:07;;;;;;;2.88;0.47;;;-4.00;99.90;;;;;;5039737;28;20030;-76
2024/01/09 03:26:33;;;;;;;2.50;0.30;;;-4.00;99.90;;;;;;5021598;28;20017;-76
2024/01/09 03:28:59;;;;;;;2.70;0.20;;;-4.00;99.90;;;;;;5022106;28;20416;-76
2024/01/09 03:31:25;;;;;;;1.92;0.32;;;-3.90;99.90;;;;;;5039663;28;20025;-76
2024/01/09 03:33:51;;;;;;;2.63;0.30;;;-4.00;99.90;;;;;;5022188;28;20040;-76
2024/01/09 03:36:17;;;;;;;1.83;0.40;;;;;;;;;;5022316;28;20097;-76
2024/01/09 03:38:44;;;;;;;1.83;0.43;;;-4.00;99.90;;;;;;5040507;28;20523;-76
2024/01/09 03:41:10;;;;;;;4.03;0.60;;;-4.00;99.90;;;;;;5021921;28;20017;-76
2024/01/09 03:43:36;;;;;;;5.35;0.38;;;-4.00;99.90;;;;;;5039498;28;20125;-76
2024/01/09 03:46:02;;;;;;;2.38;0.47;;;-4.00;99.90;;;;;;5040189;28;20049;-76
2024/01/09 03:48:27;;;;;;;3.17;0.43;;;-4.00;99.90;;;;;;5040014;28;20018;-76
2024/01/09 03:50:53;;;;;;;2.72;0.32;;;-4.10;99.90;;;;;;5037755;28;20405;-76
2024/01/09 03:53:19;;;;;;;1.33;0.30;;;-4.10;99.90;;;;;;5038981;28;20053;-76
2024/01/09 03:55:45;;;;;;;1.95;0.38;;;-4.10;99.90;;;;;;5039215;28;20036;-76
2024/01/09 03:58:12;;;;;;;3.05;0.43;;;-4.10;99.90;;;;;;5039324;28;20022;-76
2024/01/09 04:00:38;;;;;;;4.15;0.30;;;-4.10;99.90;;;;;;5020995;28;20392;-76
2024/01/09 04:03:04;;;;;;;3.50;0.63;;;-4.20;99.90;;;;;;5039627;28;20025;-76
2024/01/09 04:05:31;;;;;;;2.75;0.38;;;-4.20;99.90;;;;;;5021362;28;20033;-75
2024/01/09 04:07:56;;;;;;;2.63;0.47;;;-4.20;99.90;;;;;;5039022;28;20041;-76
2024/01/09 04:10:22;;;;;;;3.33;0.57;;;-4.20;99.90;;;;;;5038440;28;20022;-75
2024/01/09 04:12:47;;;;;;;3.58;1.00;;;-4.20;99.90;;;;;;5019985;28;20025;-77
2024/01/09 04:15:13;;;;;;;1.33;0.15;;;-4.20;99.90;;;;;;5038560;28;20031;-75
2024/01/09 04:17:39;;;;;;;3.45;0.43;;;-4.20;99.90;;;;;;5038033;28;20025;-75
2024/01/09 04:20:06;;;;;;;4.53;0.75;;;-4.20;99.90;;;;;;5038225;28;20021;-75
2024/01/09 04:22:31;;;;;;;3.28;0.70;;;-4.20;99.90;;;;;;5039259;28;20496;-76
2024/01/09 04:24:57;;;;;;;1.85;0.20;;;;;;;;;;5038017;28;20025;-75
2024/01/09 04:27:23;;;;;;;1.80;0.28;;;-4.30;99.90;;;;;;5020911;28;20112;-75
2024/01/09 04:29:49;;;;;;;2.22;0.40;;;-4.30;99.90;;;;;;5037710;28;20049;-76
2024/01/09 04:32:15;;;;;;;3.85;0.38;;;-4.30;99.90;;;;;;5038690;28;20021;-75
2024/01/09 04:34:42;;;;;;;3.38;0.63;;;-4.20;99.90;;;;;;5020920;28;20079;-76
2024/01/09 04:37:08;;;;;;;2.93;0.63;;;-4.30;99.90;;;;;;5038477;28;20018;-77
2024/01/09 04:39:34;;;;;;;2.85;0.63;;;-4.30;99.90;;;;;;5020542;28;20028;-76
2024/01/09 04:41:59;;;;;;;2.20;0.30;;;-4.30;99.90;;;;;;5020816;28;20029;-75
2024/01/09 04:44:25;;;;;;;3.00;0.55;;;-4.30;99.90;;;;;;5020344;28;20036;-75
2024/01/09 04:46:50;;;;;;;3.08;0.43;;;-4.30;99.90;;;;;;5020198;28;20036;-77
2024/01/09 04:49:16;;;;;;;1.80;0.30;;;-4.40;99.90;;;;;;5037866;28;20059;-76
2024/01/09 04:51:42;;;;;;;2.63;0.52;;;-4.30;99.90;;;;;;5038278;28;20081;-76
2024/01/09 04:54:08;;;;;;;1.75;0.47;;;;;;;;;;5037774;28;20028;-76
2024/01/09 04:56:33;;;;;;;2.17;0.38;;;-4.40;99.90;;;;;;5037989;28;20113;-76
2024/01/09 04:58:59;;;;;;;4.30;0.30;;;-4.40;99.90;;;;;;5020147;28;20116;-77
2024/01/09 05:01:25;;;;;;;2.72;0.45;;;-4.40;99.90;;;;;;5038533;28;20037;-76
2024/01/09 05:03:53;;;;;;;3.63;0.43;;;;;;;;;;5037986;28;20075;-76
2024/01/09 05:06:19;;;;;;;2.53;0.30;;;-4.40;99.90;;;;;;5018847;28;20078;-76
2024/01/09 05:08:46;;;;;;;2.47;0.40;;;-4.40;99.90;;;;;;5018759;28;20366;-76
2024/01/09 05:11:12;;;;;;;3.03;0.77;;;-4.50;99.90;;;;;;5036469;28;20574;-76
2024/01/09 05:13:38;;;;;;;3.25;0.52;;;-4.50;99.90;;;;;;5019939;28;20017;-76
2024/01/09 05:16:04;;;;;;;1.98;0.50;;;-4.50;99.90;;;;;;5020439;28;20113;-76
2024/01/09 05:18:30;;;;;;;2.70;0.40;;;-4.50;99.90;;;;;;5020215;28;20039;-76
2024/01/09 05:20:56;;;;;;;5.28;0.47;;;-4.50;99.90;;;;;;5020522;28;20022;-76
2024/01/09 05:23:21;;;;;;;1.83;0.45;;;-4.60;99.90;;;;;;5038547;28;20072;-76
2024/01/09 05:25:47;;;;;;;1.38;0.10;;;-4.60;99.90;;;;;;5019498;28;20505;-76
2024/01/09 05:28:13;;;;;;;3.20;0.30;;;-4.60;99.90;;;;;;5037030;28;20037;-76
2024/01/09 05:30:39;;;;;;;1.63;0.32;;;;;;;;;;5037571;28;20022;-76
2024/01/09 05:33:05;;;;;;;4.35;0.50;;;-4.60;99.90;;;;;;5037205;28;20393;-76
2024/01/09 05:35:31;;;;;;;6.25;0.55;;;-4.60;99.90;;;;;;5037411;28;20086;-76
2024/01/09 05:37:56;;;;;;;4.05;0.32;;;-4.60;99.90;;;;;;5036945;28;20104;-76
2024/01/09 05:40:22;;;;;;;5.88;0.55;;;-4.60;99.90;;;;;;5019144;28;20020;-76
2024/01/09 05:42:47;;;;;;;2.92;0.52;;;-4.60;99.90;;;;;;5019397;28;20029;-76
2024/01/09 05:45:14;;;;;;;2.45;0.65;;;-4.60;99.90;;;;;;5036876;28;20035;-76
2024/01/09 05:47:40;;;;;;;2.63;0.32;;;-4.60;99.90;;;;;;5019244;28;20051;-76
2024/01/09 05:50:07;;;;;;;2.97;0.80;;;-4.60;99.90;;;;;;5019160;28;20067;-76
2024/01/09 05:52:36;;;;;;;3.67;0.50;;;-4.60;99.90;;;;;;5018758;28;20116;-76
2024/01/09 05:55:03;;;;;;;2.83;0.50;;;-4.60;99.90;;;;;;5019241;28;20061;-76
2024/01/09 05:57:32;;;;;;;2.92;0.43;;;-4.70;99.90;;;;;;5037030;28;20047;-77
2024/01/09 05:59:58;;;;;;;4.68;0.77;;;-4.70;99.90;;;;;;5019203;28;20084;-75
2024/01/09 06:02:25;;;;;;;1.70;0.57;;;-4.70;99.90;;;;;;5036938;28;20025;-75
2024/01/09 06:04:51;;;;;;;2.97;0.30;;;-4.70;99.90;;;;;;5036461;28;20032;-76
2024/01/09 06:07:17;;;;;;;7.68;0.75;;;-4.70;99.90;;;;;;5037128;28;20112;-76
2024/01/09 06:09:43;;;;;;;5.40;0.60;;;-4.70;99.90;;;;;;5038138;28;20025;-75
2024/01/09 06:12:09;;;;;;;7.00;1.00;;;-4.70;99.90;;;;;;5037595;28;20044;-75
2024/01/09 06:14:37;;;;;;;4.05;0.80;;;-4.80;99.90;;;;;;5039662;28;20021;-76
2024/01/09 06:17:03;;;;;;;2.42;0.50;;;-4.80;99.90;;;;;;5041684;28;20041;-75
2024/01/09 06:19:29;;;;;;;3.00;0.63;;;-4.80;99.90;;;;;;5042610;28;20432;-75
2024/01/09 06:21:55;;;;;;;2.22;0.60;;;-4.80;99.90;;;;;;5022690;28;20032;-75
2024/01/09 06:24:21;;;;;;;3.10;0.75;;;-4.80;99.90;;;;;;5023018;28;20021;-75
2024/01/09 06:26:46;;;;;;;4.88;0.90;;;-4.80;99.90;;;;;;5040101;28;20362;-76
2024/01/09 06:29:12;;;;;;;4.00;0.63;;;-4.80;99.90;;;;;;5041342;28;20061;-76
2024/01/09 06:31:40;;;;;;;4.07;1.02;;;-4.80;99.90;;;;;;5023163;28;20061;-75
2024/01/09 06:34:06;;;;;;;2.45;0.40;;;-4.90;99.90;;;;;;5022126;28;20026;-76
2024/01/09 06:36:32;;;;;;;2.10;0.45;;;-4.90;99.90;;;;;;5041539;28;20030;-76
2024/01/09 06:38:57;;;;;;;3.25;0.95;;;-4.90;99.90;;;;;;5024465;28;20029;-77
2024/01/09 06:41:23;;;;;;;4.55;1.05;;;-4.90;99.90;;;;;;5041103;28;20424;-76
2024/01/09 06:43:50;;;;;;;4.75;1.20;;;-5.00;99.90;;;;;;5023182;28;20112;-75
2024/01/09 06:46:16;;;;;;;2.97;0.85;;;-5.00;99.90;;;;;;5040014;28;20032;-76
2024/01/09 06:48:42;;;;;;;5.07;1.17;;;-5.00;99.90;;;;;;5041324;28;20033;-77
2024/01/09 06:51:07;;;;;;;5.45;1.60;;;-4.90;99.90;;;;;;5040963;28;20025;-78
2024/01/09 06:53:33;;;;;;;2.05;0.70;;;-5.00;99.90;;;;;;5022636;28;20063;-76
2024/01/09 06:55:58;;;;;;;1.60;0.32;;;-5.00;99.90;;;;;;5022763;28;20036;-77
2024/01/09 06:58:24;;;;;;;4.65;0.75;;;-5.00;99.90;;;;;;5041451;28;20017;-76
2024/01/09 07:00:50;;;;;;;2.35;0.30;;;-5.10;99.90;;;;;;5023302;28;20485;-76
2024/01/09 07:03:16;;;;;;;2.50;0.40;;;-5.10;99.90;;;;;;5039889;28;20084;-76
2024/01/09 07:05:41;;;;;;;4.13;0.77;;;-5.10;99.90;;;;;;5021224;28;20025;-76
2024/01/09 07:08:07;;;;;;;2.72;0.75;;;-5.10;99.90;;;;;;5040726;28;20025;-76
2024/01/09 07:10:34;;;;;;;3.33;0.50;;;;;;;;;;5022028;28;20053;-76
2024/01/09 07:13:00;;;;;;;5.18;0.77;;;-5.10;99.90;;;;;;5039513;28;20025;-76
2024/01/09 07:15:26;;;;;;;7.78;1.10;;;-5.10;99.90;;;;;;5039045;28;20035;-76
2024/01/09 07:17:51;;;;;;;2.65;0.50;;;-5.20;99.90;;;;;;5039413;28;20546;-76
2024/01/09 07:20:17;;;;;;;3.22;0.55;;;-5.10;99.90;;;;;;5039924;28;20072;-77
2024/01/09 07:22:43;;;;;;;1.63;0.50;;;-5.20;99.90;;;;;;5038743;28;20025;-76
2024/01/09 07:25:09;;;;;;;4.55;1.00;;;-5.20;99.90;;;;;;5038840;28;20500;-76
2024/01/09 07:27:35;;;;;;;6.22;0.85;;;-5.20;99.90;;;;;;5039921;28;20033;-77
2024/01/09 07:30:01;;;;;;;3.53;0.63;;;-5.30;99.90;;;;;;5021707;28;20028;-77
2024/01/09 07:32:29;;;;;;;4.20;0.77;;;-5.20;99.90;;;;;;5022023;28;20485;-76
2024/01/09 07:34:55;;;;;;;3.38;0.77;;;-5.20;99.90;;;;;;5039626;28;20021;-76
2024/01/09 07:37:21;;;;;;;4.75;1.00;;;-5.20;99.90;;;;;;5039079;28;20413;-77
2024/01/09 07:39:48;;;;;;;2.55;0.35;;;-5.20;99.90;;;;;;5039087;28;20025;-77
2024/01/09 07:42:14;;;;;;;4.60;0.75;;;-5.10;99.90;;;;;;5038923;28;20461;-77
2024/01/09 07:44:40;;;;;;;4.93;0.95;;;-5.20;99.90;;;;;;5039223;28;20025;-77
2024/01/09 07:47:07;;;;;;;5.07;0.95;;;-5.20;99.90;;;;;;5021120;28;20017;-78
2024/01/09 07:49:33;;;;;;;3.83;0.40;;;-5.20;99.90;;;;;;5022429;28;20481;-76
2024/01/09 07:51:59;;;;;;;4.03;0.68;;;-5.20;99.90;;;;;;5040475;28;20066;-81
2024/01/09 07:54:25;;;;;;;5.38;0.90;;;-5.20;99.90;;;;;;5031079;28;20017;-82
2024/01/09 07:56:51;;;;;;;3.10;0.40;;;-5.20;99.90;;;;;;5030358;28;20049;-81
2024/01/09 07:59:19;;;;;;;3.67;0.43;;;-5.20;99.90;;;;;;5034254;28;20028;-81
2024/01/09 08:01:51;;;;;;;3.03;0.47;;;;;;;;;;5036304;28;20049;-80
2024/01/09 08:04:17;;;;;;;2.08;0.32;;;;;;;;;;5031347;28;20538;-81
2024/01/09 08:06:43;;;;;;;2.88;0.40;;;;;;;;;;5034283;28;20053;-81
2024/01/09 08:09:10;;;;;;;3.63;0.40;;;-5.10;99.90;;;;;;5033703;28;20025;-81
2024/01/09 08:11:37;;;;;;;3.30;0.47;;;-5.10;99.90;;;;;;5034069;28;20021;-81
2024/01/09 08:14:03;;;;;;;1.50;0.35;;;-5.00;99.90;;;;;;5039885;28;20370;-78
2024/01/09 08:16:28;;;;;;;3.35;0.30;;;-5.00;99.90;;;;;;5020110;28;20024;-76
2024/01/09 08:18:54;;;;;;;7.95;0.77;;;-5.00;99.90;;;;;;5020330;28;20025;-77
2024/01/09 08:21:19;;;;;;;2.40;0.40;;;-5.00;99.90;;;;;;5037580;28;20021;-77
2024/01/09 08:23:45;;;;;;;4.15;0.60;;;-4.90;99.90;;;;;;5019172;28;20033;-78
2024/01/09 08:26:13;;;;;;;2.22;0.40;;;-4.90;99.90;;;;;;5019444;28;20018;-77
2024/01/09 08:28:41;;;;;;;4.13;0.93;;;-4.90;99.90;;;;;;5019440;28;20055;-77
2024/01/09 08:31:07;;;;;;;;;;;-4.80;99.90;;;;;;5018981;28;20108;-77
2024/01/09 08:33:34;;;;;;;3.63;0.63;;;-4.80;99.90;;;;;;5036385;28;20359;-77
2024/01/09 08:36:01;;;;;;;1.50;0.20;;;-4.70;99.90;;;;;;5037101;28;20108;-77
2024/01/09 08:38:27;;;;;;;3.15;0.40;;;-4.70;99.90;;;;;;5019163;28;20030;-77
2024/01/09 08:40:55;;;;;;;1.98;0.40;;;-4.60;99.90;;;;;;5038250;28;20068;-77
2024/01/09 08:43:22;;;;;;;4.13;1.00;;;-4.60;99.90;;;;;;5021462;28;20069;-76
2024/01/09 08:45:49;;;;;;;7.28;0.57;;;-4.60;99.90;;;;;;5036746;28;20473;-76
2024/01/09 08:48:15;;;;;;;4.38;0.70;;;-4.50;99.90;;;;;;5037066;28;20021;-76
2024/01/09 08:50:44;;;;;;;2.38;0.40;;;-4.50;99.90;;;;;;5019863;28;20611;-76
2024/01/09 08:53:10;;;;;;;6.25;0.60;;;-4.50;99.90;;;;;;5037296;28;20037;-76
2024/01/09 08:55:36;;;;;;;3.63;0.60;;;-4.40;99.90;;;;;;5036548;28;20021;-76
2024/01/09 08:58:01;;;;;;;1.63;0.28;;;-4.40;99.90;;;;;;5020028;28;20018;-76
2024/01/09 09:00:27;;;;;;;2.03;0.47;;;-4.30;99.90;;;;;;5037464;28;20032;-76
2024/01/09 09:02:52;;;;;;;1.85;0.40;;;-4.30;99.90;;;;;;5037568;28;20028;-76
2024/01/09 09:05:18;;;;;;;4.18;0.50;;;-4.30;99.90;;;;;;5037820;28;20029;-76
2024/01/09 09:07:44;;;;;;;4.57;0.30;;;-4.20;99.90;;;;;;5019476;28;20022;-76
2024/01/09 09:10:09;;;;;;;2.35;0.60;;;-4.20;99.90;;;;;;5037292;28;20027;-76
2024/01/09 09:12:35;;;;;;;3.75;0.35;;;-4.20;99.90;;;;;;5018464;28;20408;-76
2024/01/09 09:15:04;;;;;;;1.17;0.20;;;-4.10;99.90;;;;;;5035705;28;20029;-77
2024/01/09 09:17:30;;;;;;;;;;;-4.00;99.90;;;;;;5036038;28;20493;-77
2024/01/09 09:19:57;;;;;;;6.28;0.93;;;-4.00;99.90;;;;;;5036331;28;19905;-78
2024/01/09 09:22:25;;;;;;;3.70;0.77;;;-4.00;99.90;;;;;;5035871;28;20038;-78
2024/01/09 09:24:52;;;;;;;3.20;0.43;;;-3.90;99.90;;;;;;5017915;28;20033;-77
2024/01/09 09:27:17;;;;;;;3.38;0.60;;;-3.90;99.90;;;;;;5036428;28;20408;-78
2024/01/09 09:29:43;;;;;;;5.45;1.08;;;-3.80;99.90;;;;;;5018955;28;20017;-76
2024/01/09 09:32:08;;;;;;;3.03;0.40;;;-3.70;99.90;;;;;;5036817;28;20065;-75
2024/01/09 09:34:34;;;;;;;7.25;1.00;;;-3.70;99.90;;;;;;5019419;28;20032;-75
2024/01/09 09:37:00;;;;;;;3.00;0.60;;;-3.70;99.90;;;;;;5020365;28;20014;-76
2024/01/09 09:39:26;;;;;;;3.25;0.52;;;-3.60;99.90;;;;;;5037570;28;20496;-76
2024/01/09 09:41:56;;;;;;;4.05;0.30;;;-3.50;99.90;;;;;;5019637;28;20025;-75
2024/01/09 09:44:24;;;;;;;2.38;0.47;;;-3.50;99.90;;;;;;5019609;28;20097;-76
2024/01/09 09:46:51;;;;;;;6.25;0.52;;;-3.30;99.90;;;;;;5019355;28;20022;-76
2024/01/09 09:49:22;;;;;;;4.95;0.60;;;-3.30;99.90;;;;;;5020182;28;20022;-76
2024/01/09 09:51:52;;;;;;;2.28;0.40;;;-3.20;99.90;;;;;;5020000;28;20025;-76
2024/01/09 09:54:19;;;;;;;1.70;0.32;;;-3.20;99.90;;;;;;5038795;28;20017;-76
2024/01/09 09:56:45;;;;;;;2.63;0.50;;;-3.10;99.90;;;;;;5020543;28;20018;-76
2024/01/09 09:59:11;;;;;;;5.10;0.68;;;-3.10;99.90;;;;;;5020400;28;20451;-76
2024/01/09 10:01:38;;;;;;;6.38;1.17;;;-3.00;99.90;;;;;;5037516;28;20028;-76
2024/01/09 10:04:26;;;;;;;2.00;0.20;;;-3.00;99.90;;;;;;5020024;28;20018;-75
2024/01/09 10:06:55;;;;;;;5.65;0.52;;;-2.90;99.90;;;;;;5019870;28;20067;-76
2024/01/09 10:09:21;;;;;;;;;;;-2.90;99.90;;;;;;5037810;28;20116;-76
2024/01/09 10:11:51;;;;;;;2.85;0.20;;;-2.90;99.90;;;;;;5037546;28;19909;-76
2024/01/09 10:14:17;;;;;;;1.98;0.15;;;-3.00;99.90;;;;;;5037485;28;20017;-76
2024/01/09 10:16:55;;;;;;;5.57;1.02;;;-2.80;99.90;;;;;;5020710;28;20369;-76
2024/01/09 10:19:23;;;;;;;5.10;1.42;;;-2.80;99.90;;;;;;5020605;28;20091;-76
2024/01/09 10:21:50;;;;;;;4.53;0.43;;;-2.70;99.90;;;;;;5037127;28;20071;-76
2024/01/09 10:24:16;;;;;;;2.95;0.52;;;-2.70;99.90;;;;;;5020108;28;20056;-76
2024/01/09 10:26:42;;;;;;;1.88;0.30;;;-2.50;99.90;;;;;;5037657;28;20033;-76
2024/01/09 10:29:09;;;;;;;2.20;0.30;;;-2.40;99.90;;;;;;5020220;28;20111;-76
2024/01/09 10:31:35;;;;;;;1.45;0.47;;;-2.40;99.90;;;;;;5019789;28;20028;-76
2024/01/09 10:34:00;;;;;;;1.83;0.63;;;-2.20;99.90;;;;;;5038732;28;20032;-76
2024/01/09 10:36:27;;;;;;;3.30;0.32;;;-2.10;99.90;;;;;;5018924;28;20029;-77
2024/01/09 10:39:04;;;;;;;1.92;0.32;;;-2.10;99.90;;;;;;5037972;28;20025;-76
2024/01/09 10:41:31;;;;;;;1.42;0.35;;;-2.10;99.90;;;;;;5037682;28;20052;-76
2024/01/09 10:43:59;;;;;;;1.65;0.20;;;-2.00;99.90;;;;;;5038600;28;20025;-76
2024/01/09 10:46:26;;;;;;;1.17;0.10;;;-2.00;99.90;;;;;;5021928;28;20041;-75
2024/01/09 10:48:53;;;;;;;2.60;0.38;;;-1.90;99.90;;;;;;5022116;28;20021;-76
2024/01/09 10:51:23;;;;;;;2.67;0.45;;;-1.90;99.90;;;;;;5021951;28;20022;-76
2024/01/09 10:53:51;;;;;;;1.95;0.35;;;-1.80;99.90;;;;;;5038725;28;20381;-75
2024/01/09 10:56:20;;;;;;;1.70;0.10;;;-1.80;99.90;;;;;;5038809;28;20048;-76
2024/01/09 10:58:46;;;;;;;1.85;0.30;;;-1.70;99.90;;;;;;5021625;28;20596;-76
2024/01/09 11:01:15;;;;;;;3.75;0.10;;;-1.60;99.70;;;;;;5042220;28;20029;-76
2024/01/09 11:03:44;;;;;;;;;;;-1.60;99.80;;;;;;5025133;28;20029;-74
2024/01/09 11:06:11;;;;;;;0.47;0.00;;;-1.50;99.80;;;;;;5041751;28;19955;-76
2024/01/09 11:08:37;;;;;;;3.05;0.10;;;-1.40;99.10;;;;;;5043176;28;20435;-76
2024/01/09 11:11:14;;;;;;;2.85;0.20;;;-1.30;99.10;;;;;;5042013;28;20025;-74
2024/01/09 11:13:46;;;;;;;1.88;0.30;;;-1.30;99.10;;;;;;5024260;28;20021;-74
2024/01/09 11:16:15;;;;;;;1.95;0.38;;;-1.30;98.70;;;;;;5042890;28;20128;-74
2024/01/09 11:18:43;;;;;;;0.77;0.10;;;-1.30;99.00;;;;;;5025254;28;20010;-74
2024/01/09 11:21:11;;;;;;;0.63;0.10;;;-1.20;98.50;;;;;;5042817;28;20049;-75
2024/01/09 11:23:43;;;;;;;1.77;0.20;;;-1.20;98.10;;;;;;5042146;28;20056;-74
2024/01/09 11:26:09;;;;;;;2.42;0.20;;;-1.10;98.10;;;;;;5041913;28;20052;-75
2024/01/09 11:28:38;;;;;;;1.70;0.20;;;-1.10;97.60;;;;;;5023476;28;20139;-74
2024/01/09 11:31:07;;;;;;;2.00;0.20;;;-1.00;97.60;;;;;;5023877;28;20025;-75
2024/01/09 11:33:33;;;;;;;2.45;0.20;;;-0.90;97.60;;;;;;5023671;28;20280;-74
2024/01/09 11:36:05;;;;;;;3.10;0.52;;;;;;;;;;5042300;28;20054;-75
2024/01/09 11:38:34;;;;;;;0.68;0.00;;;-0.80;96.80;;;;;;5042183;28;20029;-75
2024/01/09 11:41:09;;;;;;;3.10;0.15;;;-0.80;97.20;;;;;;5024411;28;20013;-75
2024/01/09 11:44:00;;;;;;;6.72;0.15;;;-0.70;97.10;;;;;;5024010;28;20110;-75
2024/01/09 11:46:27;;;;;;;1.45;0.10;;;-0.70;97.00;;;;;;5042167;28;20032;-75
2024/01/09 11:48:54;;;;;;;4.65;0.25;;;-0.40;96.10;;;;;;5042374;28;20026;-75
2024/01/09 11:51:21;;;;;;;1.55;0.03;;;;;;;;;;5041947;28;20100;-75
2024/01/09 11:53:48;;;;;;;3.45;0.50;;;-0.60;95.90;;;;;;5042811;28;20358;-75
2024/01/09 11:56:14;;;;;;;0.80;0.13;;;-0.50;96.40;;;;;;5042430;28;20028;-75
2024/01/09 11:58:41;;;;;;;1.58;0.20;;;-0.40;95.90;;;;;;5041436;28;20499;-75
2024/01/09 12:01:07;;;;;;;1.52;0.32;;;-0.40;95.90;;;;;;5041053;28;20022;-75
2024/01/09 12:03:35;;;;;;;1.92;0.32;;;-0.30;95.80;;;;;;5023776;28;20028;-75
2024/01/09 12:06:04;;;;;;;4.85;0.50;;;-0.20;95.60;;;;;;5040786;28;20029;-75
2024/01/09 12:08:33;;;;;;;1.17;0.10;;;-0.10;94.50;;;;;;5024276;28;20104;-75
2024/01/09 12:10:59;;;;;;;1.73;0.25;;;1.40;94.90;;;;;;5022981;28;20031;-75
2024/01/09 12:13:26;;;;;;;2.92;0.20;;;0.00;94.30;;;;;;5040038;28;20067;-75
2024/01/09 12:15:51;;;;;;;2.03;0.13;;;0.00;94.50;;;;;;5022772;28;20093;-75
2024/01/09 12:18:17;;;;;;;1.50;0.10;;;0.10;94.80;;;;;;5022995;28;20041;-75
2024/01/09 12:20:43;;;;;;;2.33;0.10;;;0.00;94.10;;;;;;5021962;28;20063;-75
2024/01/09 12:23:08;;;;;;;1.40;0.10;;;0.10;94.30;;;;;;5022218;28;20079;-75
2024/01/09 12:25:35;;;;;;;0.70;0.10;;;0.30;94.50;;;;;;5039468;28;20029;-75
2024/01/09 12:28:02;;;;;;;1.45;0.15;;;0.30;94.40;;;;;;5022473;28;20029;-75
2024/01/09 12:30:31;;;;;;;1.58;0.10;;;0.30;93.90;;;;;;5023113;28;20056;-75
2024/01/09 12:32:58;;;;;;;1.48;0.10;;;0.30;93.60;;;;;;5040013;28;20021;-75
2024/01/09 12:35:24;;;;;;;1.67;0.10;;;0.60;94.60;;;;;;5039707;28;20022;-75
2024/01/09 12:37:50;;;;;;;4.53;0.20;;;0.70;93.70;;;;;;5022036;28;20014;-75
2024/01/09 12:40:16;;;;;;;1.65;0.30;;;0.70;93.90;;;;;;5021588;28;20492;-75
2024/01/09 12:42:42;;;;;;;1.63;0.20;;;0.80;93.00;;;;;;5039607;28;20029;-75
2024/01/09 12:45:10;;;;;;;2.40;0.20;;;0.90;92.60;;;;;;5038326;28;20083;-75
2024/01/09 12:47:36;;;;;;;2.53;0.13;;;0.90;92.90;;;;;;5039074;28;20109;-75
2024/01/09 12:50:03;;;;;;;1.90;0.10;;;1.00;92.70;;;;;;5039239;28;20021;-75
2024/01/09 12:52:35;;;;;;;3.33;0.13;;;1.00;91.10;;;;;;5021776;28;20021;-76